Search for airport 
image banner adimage banner adimage banner ad
image banner ad

89CA - Swanson Ranch Nr 2 Airport

Located in Riverdale, United States

ICAO - 89CA, IATA -

Data provided by Airmate  

General information

Coordinates: N35°38'40" W120°51'1"
Elevation is 1488 feet MSL.
Magnetic variation is 15° East
View others Airports in California

Operational data

Special qualification required
Current time UTC:
Current local time:
Weather at : KPRB - Paso Robles Muni ( 20 km )
METAR: KPRB 211253Z AUTO 00000KT 10SM CLR 11/09 A2994 RMK AO2 SLP131 T01110089
TAF: KPRB 211258Z 2113/2212 VRB03KT 5SM BR SCT005 FM211330 VRB03KT 3SM BR VCFG BKN002 FM211700 19006KT P6SM SKC FM212100 20015G25KT P6SM SKC FM220200 21012KT P6SM SKC FM220600 25006KT P6SM SKC FM221100 VRB03KT 5SM BR BKN007
View NOTAMs / SUP AIP / TFR affecting this airport [VIEW]
Communications frequencies: [VIEW]

Runways:

RWY identifierQFULength (ft)Width (ft)SurfaceLDA (ft)
04335325ASPH
22335325ASPH

Airport contact information

Address: Riverdale United States

Satellite view of 89CA